Buoy 41609

sailwx.info

Track history (hours):
 
Tides and Currents Weather Stations Pressure Air Temp Water Temp Dewpoint Dewpoint Depression Visibility Wind Speed Wind Dir Waves Ship Positions

Drifting buoy 41609

Last reported at 2015-Sep-02 09:00 UTC. Time now 2015-Sep-02 10:40 UTC.
Position N 45°26' W 031°44'.

Water temperature 18.6 ° C

Date/timePositionNaut miles runAvg speedWind from/ knotsBaromVisibWave heightAir tempDewpointWater temp
2015-Sep-02 09:00N 45°26' W 031°44'1 1.3 18.6
2015-Sep-02 08:00N 45°27' W 031°45'0 0.2 18.6
2015-Sep-02 07:00N 45°27' W 031°45'2 0.8 18.6
2015-Sep-02 05:00N 45°28' W 031°47'4 0.7 18.5
2015-Sep-02 00:00N 45°31' W 031°49'6 2.8 18.8
2015-Sep-01 22:00N 45°36' W 031°52'0 0.0 18.9
2015-Sep-01 21:00N 45°36' W 031°52'1 0.3 19.0
2015-Sep-01 19:00N 45°36' W 031°53'2 0.9 19.1
2015-Sep-01 17:00N 45°38' W 031°55'17 0.8 19.1
2015-Aug-31 18:00N 45°53' W 032°07'0 0.1 18.5
2015-Aug-31 17:00N 45°53' W 032°07'1 0.9 18.5
2015-Aug-31 16:00N 45°54' W 032°08'2 0.6 18.5
2015-Aug-31 12:00N 45°55' W 032°11'2 1.7 18.4
2015-Aug-31 11:00N 45°57' W 032°12'1 0.2 18.3
2015-Aug-31 08:00N 45°57' W 032°13'5 1.2 18.2
2015-Aug-31 04:00N 45°59' W 032°19'0 0.0 18.2
2015-Aug-31 03:00N 45°59' W 032°19'0 0.1 18.2
2015-Aug-30 23:00N 45°60' W 032°19'2 0.4 18.2
2015-Aug-30 18:00N 45°60' W 032°22'4 0.7 18.3
2015-Aug-30 13:00N 46°01' W 032°27'3 0.5 18.2
2015-Aug-30 08:00N 46°00' W 032°31'0 0.0 18.2
2015-Aug-30 07:00N 46°00' W 032°31'1 0.4 18.2
2015-Aug-30 05:00N 46°00' W 032°32'1 0.7 18.2
2015-Aug-30 04:00N 46°00' W 032°33'8 0.8 18.2
2015-Aug-29 18:00N 45°58' W 032°44'3 0.9 18.9
2015-Aug-29 14:00N 45°57' W 032°49'3 0.9 18.5
2015-Aug-29 11:00N 45°56' W 032°53'0 0.0 18.2
2015-Aug-29 10:00N 45°56' W 032°53'0 0.4 18.2
2015-Aug-29 09:00N 45°56' W 032°54'11 1.0 18.2
2015-Aug-28 22:00N 45°52' W 033°07'0 0.2 18.2
2015-Aug-28 20:00N 45°52' W 033°08'3 0.9 18.3
2015-Aug-28 16:00N 45°50' W 033°12'6 1.4 18.3
2015-Aug-28 12:00N 45°48' W 033°19'3 0.6 18.3
2015-Aug-28 08:00N 45°46' W 033°22'0 0.0 18.2
2015-Aug-28 07:00N 45°46' W 033°22'1 0.7 18.2
2015-Aug-28 06:00N 45°46' W 033°23'1 0.7 18.2
2015-Aug-28 04:00N 45°45' W 033°24'0 0.0 18.3
2015-Aug-28 03:00N 45°45' W 033°24'5 1.2 18.3
2015-Aug-27 23:00N 45°43' W 033°30'2 0.6 18.3
2015-Aug-27 20:00N 45°42' W 033°32'3 1.6 18.3
2015-Aug-27 18:00N 45°39' W 033°35'0 0.0 18.4
2015-Aug-27 17:00N 45°39' W 033°35'2 1.6 18.4
2015-Aug-27 16:00N 45°38' W 033°37'3 0.4 18.3
2015-Aug-27 09:00N 45°37' W 033°41'2 0.8 18.3
2015-Aug-27 07:00N 45°37' W 033°43'8 0.6 18.3
2015-Aug-26 18:00N 45°31' W 033°51'0 0.0 17.9
2015-Aug-26 17:00N 45°31' W 033°51'1 0.2 17.9
2015-Aug-26 14:00N 45°31' W 033°52'1 0.9 17.7
2015-Aug-26 13:00N 45°30' W 033°53'3 0.6 17.6
2015-Aug-26 08:00N 45°28' W 033°55'0 0.4 17.4
2015-Aug-26 07:00N 45°28' W 033°55'1 0.4 17.5
2015-Aug-26 05:00N 45°27' W 033°56'4 0.6 17.7
2015-Aug-25 23:00N 45°24' W 033°58'2 0.6 17.9
2015-Aug-25 20:00N 45°22' W 033°59'0 0.0 17.9
2015-Aug-25 17:00N 45°22' W 033°59'1 0.3
2015-Aug-25 14:00N 45°21' W 034°00'2 0.5
2015-Aug-25 09:00N 45°19' W 034°02'1 0.2
2015-Aug-25 06:00N 45°19' W 034°03'1 1.2
2015-Aug-25 05:00N 45°19' W 034°04'0 0.0
2015-Aug-25 03:00N 45°19' W 034°04'0 0.0
2015-Aug-25 00:00N 45°19' W 034°04'3 0.5
2015-Aug-24 19:00N 45°17' W 034°07'1 0.7
2015-Aug-24 18:00N 45°18' W 034°07'1 0.3
2015-Aug-24 15:00N 45°17' W 034°07'0 0.0
2015-Aug-24 14:00N 45°17' W 034°07'2 0.3
2015-Aug-24 08:00N 45°17' W 034°10'4 0.4
2015-Aug-23 21:00N 45°18' W 034°15'0 0.0
2015-Aug-23 20:00N 45°18' W 034°15'1 0.7
2015-Aug-23 19:00N 45°18' W 034°16'0 0.1
2015-Aug-23 18:00N 45°19' W 034°16'0 0.4
2015-Aug-23 17:00N 45°19' W 034°16'  
Track history (hours):
 
Tides and Currents Weather Stations Pressure Air Temp Water Temp Dewpoint Dewpoint Depression Visibility Wind Speed Wind Dir Waves Ship Positions

Drifting buoy 41609

Last reported at 2015-Sep-02 09:00 UTC. Time now 2015-Sep-02 10:40 UTC.
Position N 45°26' W 031°44'.

Water temperature 18.6 ° C

Date/timePositionNaut miles runAvg speedWind from/ knotsBaromVisibWave heightAir tempDewpointWater temp
2015-Sep-02 09:00N 45°26' W 031°44'1 1.3 18.6
2015-Sep-02 08:00N 45°27' W 031°45'0 0.2 18.6
2015-Sep-02 07:00N 45°27' W 031°45'2 0.8 18.6
2015-Sep-02 05:00N 45°28' W 031°47'4 0.7 18.5
2015-Sep-02 00:00N 45°31' W 031°49'6 2.8 18.8
2015-Sep-01 22:00N 45°36' W 031°52'0 0.0 18.9
2015-Sep-01 21:00N 45°36' W 031°52'1 0.3 19.0
2015-Sep-01 19:00N 45°36' W 031°53'2 0.9 19.1
2015-Sep-01 17:00N 45°38' W 031°55'17 0.8 19.1
2015-Aug-31 18:00N 45°53' W 032°07'0 0.1 18.5
2015-Aug-31 17:00N 45°53' W 032°07'1 0.9 18.5
2015-Aug-31 16:00N 45°54' W 032°08'2 0.6 18.5
2015-Aug-31 12:00N 45°55' W 032°11'2 1.7 18.4
2015-Aug-31 11:00N 45°57' W 032°12'1 0.2 18.3
2015-Aug-31 08:00N 45°57' W 032°13'5 1.2 18.2
2015-Aug-31 04:00N 45°59' W 032°19'0 0.0 18.2
2015-Aug-31 03:00N 45°59' W 032°19'0 0.1 18.2
2015-Aug-30 23:00N 45°60' W 032°19'2 0.4 18.2
2015-Aug-30 18:00N 45°60' W 032°22'4 0.7 18.3
2015-Aug-30 13:00N 46°01' W 032°27'3 0.5 18.2
2015-Aug-30 08:00N 46°00' W 032°31'0 0.0 18.2
2015-Aug-30 07:00N 46°00' W 032°31'1 0.4 18.2
2015-Aug-30 05:00N 46°00' W 032°32'1 0.7 18.2
2015-Aug-30 04:00N 46°00' W 032°33'8 0.8 18.2
2015-Aug-29 18:00N 45°58' W 032°44'3 0.9 18.9
2015-Aug-29 14:00N 45°57' W 032°49'3 0.9 18.5
2015-Aug-29 11:00N 45°56' W 032°53'0 0.0 18.2
2015-Aug-29 10:00N 45°56' W 032°53'0 0.4 18.2
2015-Aug-29 09:00N 45°56' W 032°54'11 1.0 18.2
2015-Aug-28 22:00N 45°52' W 033°07'0 0.2 18.2
2015-Aug-28 20:00N 45°52' W 033°08'3 0.9 18.3
2015-Aug-28 16:00N 45°50' W 033°12'6 1.4 18.3
2015-Aug-28 12:00N 45°48' W 033°19'3 0.6 18.3
2015-Aug-28 08:00N 45°46' W 033°22'0 0.0 18.2
2015-Aug-28 07:00N 45°46' W 033°22'1 0.7 18.2
2015-Aug-28 06:00N 45°46' W 033°23'1 0.7 18.2
2015-Aug-28 04:00N 45°45' W 033°24'0 0.0 18.3
2015-Aug-28 03:00N 45°45' W 033°24'5 1.2 18.3
2015-Aug-27 23:00N 45°43' W 033°30'2 0.6 18.3
2015-Aug-27 20:00N 45°42' W 033°32'3 1.6 18.3
2015-Aug-27 18:00N 45°39' W 033°35'0 0.0 18.4
2015-Aug-27 17:00N 45°39' W 033°35'2 1.6 18.4
2015-Aug-27 16:00N 45°38' W 033°37'3 0.4 18.3
2015-Aug-27 09:00N 45°37' W 033°41'2 0.8 18.3
2015-Aug-27 07:00N 45°37' W 033°43'8 0.6 18.3
2015-Aug-26 18:00N 45°31' W 033°51'0 0.0 17.9
2015-Aug-26 17:00N 45°31' W 033°51'1 0.2 17.9
2015-Aug-26 14:00N 45°31' W 033°52'1 0.9 17.7
2015-Aug-26 13:00N 45°30' W 033°53'3 0.6 17.6
2015-Aug-26 08:00N 45°28' W 033°55'0 0.4 17.4
2015-Aug-26 07:00N 45°28' W 033°55'1 0.4 17.5
2015-Aug-26 05:00N 45°27' W 033°56'4 0.6 17.7
2015-Aug-25 23:00N 45°24' W 033°58'2 0.6 17.9
2015-Aug-25 20:00N 45°22' W 033°59'0 0.0 17.9
2015-Aug-25 17:00N 45°22' W 033°59'1 0.3
2015-Aug-25 14:00N 45°21' W 034°00'2 0.5
2015-Aug-25 09:00N 45°19' W 034°02'1 0.2
2015-Aug-25 06:00N 45°19' W 034°03'1 1.2
2015-Aug-25 05:00N 45°19' W 034°04'0 0.0
2015-Aug-25 03:00N 45°19' W 034°04'0 0.0
2015-Aug-25 00:00N 45°19' W 034°04'3 0.5
2015-Aug-24 19:00N 45°17' W 034°07'1 0.7
2015-Aug-24 18:00N 45°18' W 034°07'1 0.3
2015-Aug-24 15:00N 45°17' W 034°07'0 0.0
2015-Aug-24 14:00N 45°17' W 034°07'2 0.3
2015-Aug-24 08:00N 45°17' W 034°10'4 0.4
2015-Aug-23 21:00N 45°18' W 034°15'0 0.0
2015-Aug-23 20:00N 45°18' W 034°15'1 0.7
2015-Aug-23 19:00N 45°18' W 034°16'0 0.1
2015-Aug-23 18:00N 45°19' W 034°16'0 0.4
2015-Aug-23 17:00N 45°19' W 034°16'  

Dump ship's entire track history